sensor_id;sensor_type;location;lat;lon;timestamp;P1;durP1;ratioP1;P2;durP2;ratioP2
297;SDS011;133;49.626;9.680;2022-08-21T00:00:46;4.93;;;4.63;;
297;SDS011;133;49.626;9.680;2022-08-21T00:03:13;5.77;;;4.90;;
297;SDS011;133;49.626;9.680;2022-08-21T00:05:41;4.37;;;4.07;;
297;SDS011;133;49.626;9.680;2022-08-21T00:08:09;5.00;;;4.70;;
297;SDS011;133;49.626;9.680;2022-08-21T00:10:35;4.50;;;4.20;;
297;SDS011;133;49.626;9.680;2022-08-21T00:13:02;6.30;;;5.10;;
297;SDS011;133;49.626;9.680;2022-08-21T00:15:29;6.80;;;5.47;;
297;SDS011;133;49.626;9.680;2022-08-21T00:17:56;6.00;;;5.77;;
297;SDS011;133;49.626;9.680;2022-08-21T00:20:23;5.80;;;5.00;;
297;SDS011;133;49.626;9.680;2022-08-21T00:22:49;5.80;;;5.50;;
297;SDS011;133;49.626;9.680;2022-08-21T00:25:16;8.30;;;7.27;;
297;SDS011;133;49.626;9.680;2022-08-21T00:27:42;8.60;;;7.43;;
297;SDS011;133;49.626;9.680;2022-08-21T00:30:08;10.90;;;8.33;;
297;SDS011;133;49.626;9.680;2022-08-21T00:32:36;9.83;;;9.40;;
297;SDS011;133;49.626;9.680;2022-08-21T00:35:04;10.10;;;9.00;;
297;SDS011;133;49.626;9.680;2022-08-21T00:37:32;7.90;;;7.50;;
297;SDS011;133;49.626;9.680;2022-08-21T00:39:58;7.00;;;6.60;;
297;SDS011;133;49.626;9.680;2022-08-21T00:42:24;7.97;;;7.57;;
297;SDS011;133;49.626;9.680;2022-08-21T00:44:50;9.10;;;7.90;;
297;SDS011;133;49.626;9.680;2022-08-21T00:47:16;9.03;;;7.57;;
297;SDS011;133;49.626;9.680;2022-08-21T00:49:43;9.13;;;8.13;;
297;SDS011;133;49.626;9.680;2022-08-21T00:52:10;8.07;;;7.53;;
297;SDS011;133;49.626;9.680;2022-08-21T00:54:49;7.23;;;6.90;;
297;SDS011;133;49.626;9.680;2022-08-21T00:57:17;10.20;;;7.87;;
297;SDS011;133;49.626;9.680;2022-08-21T00:59:51;9.20;;;7.63;;
297;SDS011;133;49.626;9.680;2022-08-21T01:02:18;8.13;;;7.40;;
297;SDS011;133;49.626;9.680;2022-08-21T01:04:45;8.03;;;7.27;;
297;SDS011;133;49.626;9.680;2022-08-21T01:07:11;8.00;;;7.60;;
297;SDS011;133;49.626;9.680;2022-08-21T01:09:37;8.20;;;7.73;;
297;SDS011;133;49.626;9.680;2022-08-21T01:12:04;11.23;;;8.67;;
297;SDS011;133;49.626;9.680;2022-08-21T01:14:30;8.70;;;8.20;;
297;SDS011;133;49.626;9.680;2022-08-21T01:16:56;9.30;;;7.97;;
297;SDS011;133;49.626;9.680;2022-08-21T01:19:24;8.27;;;7.83;;
297;SDS011;133;49.626;9.680;2022-08-21T01:21:52;9.13;;;8.03;;
297;SDS011;133;49.626;9.680;2022-08-21T01:24:19;8.17;;;7.80;;
297;SDS011;133;49.626;9.680;2022-08-21T01:26:46;8.93;;;8.37;;
297;SDS011;133;49.626;9.680;2022-08-21T01:32:00;8.47;;;8.00;;
297;SDS011;133;49.626;9.680;2022-08-21T01:34:34;10.33;;;8.80;;
297;SDS011;133;49.626;9.680;2022-08-21T01:37:02;9.70;;;9.17;;
297;SDS011;133;49.626;9.680;2022-08-21T01:39:28;9.13;;;8.63;;
297;SDS011;133;49.626;9.680;2022-08-21T01:41:54;12.00;;;9.40;;
297;SDS011;133;49.626;9.680;2022-08-21T01:44:21;9.80;;;8.73;;
297;SDS011;133;49.626;9.680;2022-08-21T01:46:47;13.10;;;9.00;;
297;SDS011;133;49.626;9.680;2022-08-21T01:49:13;10.63;;;9.63;;
297;SDS011;133;49.626;9.680;2022-08-21T01:51:40;9.00;;;8.50;;
297;SDS011;133;49.626;9.680;2022-08-21T01:54:06;11.57;;;9.50;;
297;SDS011;133;49.626;9.680;2022-08-21T01:56:37;9.80;;;9.30;;
297;SDS011;133;49.626;9.680;2022-08-21T01:59:04;12.53;;;9.40;;
297;SDS011;133;49.626;9.680;2022-08-21T02:01:30;10.20;;;8.60;;
297;SDS011;133;49.626;9.680;2022-08-21T02:03:55;12.10;;;9.93;;
297;SDS011;133;49.626;9.680;2022-08-21T02:06:21;11.20;;;8.93;;
297;SDS011;133;49.626;9.680;2022-08-21T02:08:46;9.83;;;8.30;;
297;SDS011;133;49.626;9.680;2022-08-21T02:11:12;10.10;;;9.20;;
297;SDS011;133;49.626;9.680;2022-08-21T02:13:38;11.97;;;10.43;;
297;SDS011;133;49.626;9.680;2022-08-21T02:16:04;10.37;;;9.87;;
297;SDS011;133;49.626;9.680;2022-08-21T02:18:30;11.43;;;9.70;;
297;SDS011;133;49.626;9.680;2022-08-21T02:20:55;9.80;;;8.30;;
297;SDS011;133;49.626;9.680;2022-08-21T02:23:21;9.97;;;9.20;;
297;SDS011;133;49.626;9.680;2022-08-21T02:25:48;11.70;;;9.70;;
297;SDS011;133;49.626;9.680;2022-08-21T02:28:13;11.50;;;8.70;;
297;SDS011;133;49.626;9.680;2022-08-21T02:30:41;13.17;;;9.07;;
297;SDS011;133;49.626;9.680;2022-08-21T02:33:10;13.67;;;9.20;;
297;SDS011;133;49.626;9.680;2022-08-21T02:35:37;11.30;;;9.27;;
297;SDS011;133;49.626;9.680;2022-08-21T02:38:05;16.43;;;10.20;;
297;SDS011;133;49.626;9.680;2022-08-21T02:40:34;11.00;;;9.27;;
297;SDS011;133;49.626;9.680;2022-08-21T02:43:02;10.37;;;8.90;;
297;SDS011;133;49.626;9.680;2022-08-21T02:45:29;9.80;;;9.30;;
297;SDS011;133;49.626;9.680;2022-08-21T02:47:57;10.67;;;9.40;;
297;SDS011;133;49.626;9.680;2022-08-21T02:50:28;11.53;;;9.80;;
297;SDS011;133;49.626;9.680;2022-08-21T02:52:58;10.70;;;9.60;;
297;SDS011;133;49.626;9.680;2022-08-21T02:55:25;9.70;;;9.20;;
297;SDS011;133;49.626;9.680;2022-08-21T02:57:53;10.13;;;9.27;;
297;SDS011;133;49.626;9.680;2022-08-21T03:00:20;13.00;;;9.10;;
297;SDS011;133;49.626;9.680;2022-08-21T03:02:48;12.93;;;9.27;;
297;SDS011;133;49.626;9.680;2022-08-21T03:05:14;10.73;;;9.63;;
297;SDS011;133;49.626;9.680;2022-08-21T03:07:41;10.60;;;9.33;;
297;SDS011;133;49.626;9.680;2022-08-21T03:10:08;10.10;;;9.60;;
297;SDS011;133;49.626;9.680;2022-08-21T03:12:34;12.23;;;9.47;;
297;SDS011;133;49.626;9.680;2022-08-21T03:15:01;10.03;;;9.43;;
297;SDS011;133;49.626;9.680;2022-08-21T03:17:31;10.47;;;9.63;;
297;SDS011;133;49.626;9.680;2022-08-21T03:19:57;10.37;;;9.80;;
297;SDS011;133;49.626;9.680;2022-08-21T03:22:23;10.60;;;9.07;;
297;SDS011;133;49.626;9.680;2022-08-21T03:24:49;12.27;;;10.27;;
297;SDS011;133;49.626;9.680;2022-08-21T03:27:14;13.10;;;10.37;;
297;SDS011;133;49.626;9.680;2022-08-21T03:29:40;11.77;;;9.77;;
297;SDS011;133;49.626;9.680;2022-08-21T03:32:06;16.03;;;10.27;;
297;SDS011;133;49.626;9.680;2022-08-21T03:34:34;14.53;;;10.50;;
297;SDS011;133;49.626;9.680;2022-08-21T03:37:01;13.90;;;10.37;;
297;SDS011;133;49.626;9.680;2022-08-21T03:39:28;11.73;;;10.07;;
297;SDS011;133;49.626;9.680;2022-08-21T03:41:54;13.13;;;11.20;;
297;SDS011;133;49.626;9.680;2022-08-21T03:44:20;11.63;;;10.07;;
297;SDS011;133;49.626;9.680;2022-08-21T03:46:45;11.53;;;10.37;;
297;SDS011;133;49.626;9.680;2022-08-21T03:49:11;12.10;;;9.70;;
297;SDS011;133;49.626;9.680;2022-08-21T03:51:38;12.17;;;10.33;;
297;SDS011;133;49.626;9.680;2022-08-21T03:54:03;12.50;;;10.37;;
297;SDS011;133;49.626;9.680;2022-08-21T03:56:29;11.20;;;9.63;;
297;SDS011;133;49.626;9.680;2022-08-21T03:58:55;12.43;;;10.90;;
297;SDS011;133;49.626;9.680;2022-08-21T04:01:21;12.23;;;10.63;;
297;SDS011;133;49.626;9.680;2022-08-21T04:03:47;13.10;;;10.03;;
297;SDS011;133;49.626;9.680;2022-08-21T04:06:12;17.20;;;12.17;;
297;SDS011;133;49.626;9.680;2022-08-21T04:08:38;11.03;;;10.43;;
297;SDS011;133;49.626;9.680;2022-08-21T04:11:04;14.17;;;10.50;;
297;SDS011;133;49.626;9.680;2022-08-21T04:13:31;11.60;;;10.63;;
297;SDS011;133;49.626;9.680;2022-08-21T04:15:56;13.57;;;11.13;;
297;SDS011;133;49.626;9.680;2022-08-21T04:18:25;11.90;;;9.43;;
297;SDS011;133;49.626;9.680;2022-08-21T04:20:51;10.53;;;9.97;;
297;SDS011;133;49.626;9.680;2022-08-21T04:23:19;10.97;;;9.57;;
297;SDS011;133;49.626;9.680;2022-08-21T04:25:45;12.47;;;11.03;;
297;SDS011;133;49.626;9.680;2022-08-21T04:28:11;11.27;;;9.87;;
297;SDS011;133;49.626;9.680;2022-08-21T04:30:36;12.03;;;10.50;;
297;SDS011;133;49.626;9.680;2022-08-21T04:33:02;14.23;;;11.33;;
297;SDS011;133;49.626;9.680;2022-08-21T04:35:28;14.90;;;11.23;;
297;SDS011;133;49.626;9.680;2022-08-21T04:37:55;12.20;;;10.70;;
297;SDS011;133;49.626;9.680;2022-08-21T04:40:22;13.43;;;11.13;;
297;SDS011;133;49.626;9.680;2022-08-21T04:42:50;13.00;;;11.87;;
297;SDS011;133;49.626;9.680;2022-08-21T04:45:19;11.90;;;11.03;;
297;SDS011;133;49.626;9.680;2022-08-21T04:47:53;13.73;;;12.10;;
297;SDS011;133;49.626;9.680;2022-08-21T04:50:27;14.07;;;11.73;;
297;SDS011;133;49.626;9.680;2022-08-21T04:53:01;13.07;;;10.43;;
297;SDS011;133;49.626;9.680;2022-08-21T04:55:26;10.93;;;10.33;;
297;SDS011;133;49.626;9.680;2022-08-21T04:57:53;11.57;;;9.90;;
297;SDS011;133;49.626;9.680;2022-08-21T05:00:20;14.17;;;10.27;;
297;SDS011;133;49.626;9.680;2022-08-21T05:02:49;11.30;;;10.40;;
297;SDS011;133;49.626;9.680;2022-08-21T05:05:19;14.10;;;10.53;;
297;SDS011;133;49.626;9.680;2022-08-21T05:07:45;10.67;;;10.00;;
297;SDS011;133;49.626;9.680;2022-08-21T05:10:12;11.97;;;10.33;;
297;SDS011;133;49.626;9.680;2022-08-21T05:12:39;11.67;;;9.70;;
297;SDS011;133;49.626;9.680;2022-08-21T05:15:07;10.90;;;9.90;;
297;SDS011;133;49.626;9.680;2022-08-21T05:17:33;13.13;;;10.63;;
297;SDS011;133;49.626;9.680;2022-08-21T05:19:58;11.80;;;10.60;;
297;SDS011;133;49.626;9.680;2022-08-21T05:22:24;12.70;;;10.70;;
297;SDS011;133;49.626;9.680;2022-08-21T05:24:50;12.97;;;10.00;;
297;SDS011;133;49.626;9.680;2022-08-21T05:27:16;11.90;;;9.60;;
297;SDS011;133;49.626;9.680;2022-08-21T05:29:42;11.97;;;9.97;;
297;SDS011;133;49.626;9.680;2022-08-21T05:32:11;12.87;;;10.60;;
297;SDS011;133;49.626;9.680;2022-08-21T05:34:38;11.90;;;10.80;;
297;SDS011;133;49.626;9.680;2022-08-21T05:37:04;12.27;;;10.60;;
297;SDS011;133;49.626;9.680;2022-08-21T05:39:29;12.60;;;10.57;;
297;SDS011;133;49.626;9.680;2022-08-21T05:41:56;17.43;;;11.10;;
297;SDS011;133;49.626;9.680;2022-08-21T05:44:21;11.80;;;10.40;;
297;SDS011;133;49.626;9.680;2022-08-21T05:46:47;11.00;;;10.20;;
297;SDS011;133;49.626;9.680;2022-08-21T05:49:12;11.57;;;10.70;;
297;SDS011;133;49.626;9.680;2022-08-21T05:51:41;12.33;;;10.37;;
297;SDS011;133;49.626;9.680;2022-08-21T05:54:07;11.23;;;10.57;;
297;SDS011;133;49.626;9.680;2022-08-21T05:56:33;12.40;;;11.20;;
297;SDS011;133;49.626;9.680;2022-08-21T05:58:59;13.10;;;10.80;;
297;SDS011;133;49.626;9.680;2022-08-21T06:01:24;13.30;;;11.47;;
297;SDS011;133;49.626;9.680;2022-08-21T06:03:50;12.30;;;10.50;;
297;SDS011;133;49.626;9.680;2022-08-21T06:06:16;14.67;;;11.00;;
297;SDS011;133;49.626;9.680;2022-08-21T06:08:42;10.97;;;10.30;;
297;SDS011;133;49.626;9.680;2022-08-21T06:11:08;12.27;;;11.30;;
297;SDS011;133;49.626;9.680;2022-08-21T06:13:34;10.53;;;9.97;;
297;SDS011;133;49.626;9.680;2022-08-21T06:16:01;12.83;;;10.77;;
297;SDS011;133;49.626;9.680;2022-08-21T06:18:31;13.33;;;12.13;;
297;SDS011;133;49.626;9.680;2022-08-21T06:20:57;12.77;;;10.20;;
297;SDS011;133;49.626;9.680;2022-08-21T06:23:23;15.00;;;12.10;;
297;SDS011;133;49.626;9.680;2022-08-21T06:25:48;16.60;;;12.00;;
297;SDS011;133;49.626;9.680;2022-08-21T06:28:14;13.13;;;11.53;;
297;SDS011;133;49.626;9.680;2022-08-21T06:30:40;18.43;;;13.17;;
297;SDS011;133;49.626;9.680;2022-08-21T06:33:05;14.10;;;11.03;;
297;SDS011;133;49.626;9.680;2022-08-21T06:35:32;14.90;;;12.33;;
297;SDS011;133;49.626;9.680;2022-08-21T06:37:58;15.13;;;12.30;;
297;SDS011;133;49.626;9.680;2022-08-21T06:40:25;13.33;;;11.53;;
297;SDS011;133;49.626;9.680;2022-08-21T06:42:51;16.83;;;11.50;;
297;SDS011;133;49.626;9.680;2022-08-21T06:45:17;13.17;;;10.93;;
297;SDS011;133;49.626;9.680;2022-08-21T06:47:43;12.20;;;10.23;;
297;SDS011;133;49.626;9.680;2022-08-21T06:50:09;14.83;;;11.67;;
297;SDS011;133;49.626;9.680;2022-08-21T06:52:37;15.90;;;11.83;;
297;SDS011;133;49.626;9.680;2022-08-21T06:55:07;13.03;;;11.17;;
297;SDS011;133;49.626;9.680;2022-08-21T06:57:34;14.77;;;12.00;;
297;SDS011;133;49.626;9.680;2022-08-21T07:00:00;13.50;;;11.60;;
297;SDS011;133;49.626;9.680;2022-08-21T07:02:29;12.33;;;11.00;;
297;SDS011;133;49.626;9.680;2022-08-21T07:04:55;16.50;;;11.50;;
297;SDS011;133;49.626;9.680;2022-08-21T07:07:20;12.77;;;11.10;;
297;SDS011;133;49.626;9.680;2022-08-21T07:09:46;11.53;;;10.20;;
297;SDS011;133;49.626;9.680;2022-08-21T07:12:12;18.63;;;12.57;;
297;SDS011;133;49.626;9.680;2022-08-21T07:14:38;17.60;;;11.93;;
297;SDS011;133;49.626;9.680;2022-08-21T07:17:03;12.10;;;10.70;;
297;SDS011;133;49.626;9.680;2022-08-21T07:19:29;14.00;;;10.70;;
297;SDS011;133;49.626;9.680;2022-08-21T07:21:56;19.73;;;12.23;;
297;SDS011;133;49.626;9.680;2022-08-21T07:24:25;15.57;;;11.00;;
297;SDS011;133;49.626;9.680;2022-08-21T07:26:50;11.97;;;10.67;;
297;SDS011;133;49.626;9.680;2022-08-21T07:29:16;10.60;;;9.60;;
297;SDS011;133;49.626;9.680;2022-08-21T07:31:43;15.63;;;10.70;;
297;SDS011;133;49.626;9.680;2022-08-21T07:34:09;12.00;;;10.13;;
297;SDS011;133;49.626;9.680;2022-08-21T07:36:35;12.67;;;10.60;;
297;SDS011;133;49.626;9.680;2022-08-21T07:39:00;17.37;;;10.90;;
297;SDS011;133;49.626;9.680;2022-08-21T07:41:26;14.77;;;11.30;;
297;SDS011;133;49.626;9.680;2022-08-21T07:43:57;14.17;;;11.13;;
297;SDS011;133;49.626;9.680;2022-08-21T07:46:24;16.30;;;10.83;;
297;SDS011;133;49.626;9.680;2022-08-21T07:48:50;17.70;;;11.00;;
297;SDS011;133;49.626;9.680;2022-08-21T07:51:17;15.27;;;9.80;;
297;SDS011;133;49.626;9.680;2022-08-21T07:53:49;15.23;;;11.27;;
297;SDS011;133;49.626;9.680;2022-08-21T07:56:18;10.80;;;10.03;;
297;SDS011;133;49.626;9.680;2022-08-21T07:58:44;13.90;;;10.40;;
297;SDS011;133;49.626;9.680;2022-08-21T08:01:10;10.13;;;8.80;;
297;SDS011;133;49.626;9.680;2022-08-21T08:03:36;14.70;;;10.80;;
297;SDS011;133;49.626;9.680;2022-08-21T08:06:02;10.03;;;9.30;;
297;SDS011;133;49.626;9.680;2022-08-21T08:08:29;15.07;;;10.20;;
297;SDS011;133;49.626;9.680;2022-08-21T08:10:56;12.73;;;10.27;;
297;SDS011;133;49.626;9.680;2022-08-21T08:13:22;10.57;;;9.50;;
297;SDS011;133;49.626;9.680;2022-08-21T08:15:48;10.90;;;9.40;;
297;SDS011;133;49.626;9.680;2022-08-21T08:18:14;8.90;;;8.43;;
297;SDS011;133;49.626;9.680;2022-08-21T08:20:40;12.77;;;10.03;;
297;SDS011;133;49.626;9.680;2022-08-21T08:23:06;10.80;;;9.27;;
297;SDS011;133;49.626;9.680;2022-08-21T08:25:34;10.23;;;8.30;;
297;SDS011;133;49.626;9.680;2022-08-21T08:28:00;10.70;;;8.73;;
297;SDS011;133;49.626;9.680;2022-08-21T08:30:26;9.50;;;8.77;;
297;SDS011;133;49.626;9.680;2022-08-21T08:32:51;10.17;;;8.60;;
297;SDS011;133;49.626;9.680;2022-08-21T08:35:17;10.10;;;8.60;;
297;SDS011;133;49.626;9.680;2022-08-21T08:37:43;9.60;;;8.20;;
297;SDS011;133;49.626;9.680;2022-08-21T08:40:12;8.77;;;7.80;;
297;SDS011;133;49.626;9.680;2022-08-21T08:42:47;8.90;;;8.43;;
297;SDS011;133;49.626;9.680;2022-08-21T08:45:16;11.03;;;7.40;;
297;SDS011;133;49.626;9.680;2022-08-21T08:47:46;8.33;;;7.37;;
297;SDS011;133;49.626;9.680;2022-08-21T08:53:23;6.70;;;6.27;;
297;SDS011;133;49.626;9.680;2022-08-21T08:55:54;7.73;;;6.47;;
297;SDS011;133;49.626;9.680;2022-08-21T08:58:36;6.60;;;6.20;;
297;SDS011;133;49.626;9.680;2022-08-21T09:01:05;6.40;;;5.67;;
297;SDS011;133;49.626;9.680;2022-08-21T09:03:44;7.50;;;6.33;;
297;SDS011;133;49.626;9.680;2022-08-21T09:06:21;10.07;;;6.83;;
297;SDS011;133;49.626;9.680;2022-08-21T09:14:26;6.67;;;6.27;;
297;SDS011;133;49.626;9.680;2022-08-21T09:23:08;6.67;;;6.07;;
297;SDS011;133;49.626;9.680;2022-08-21T09:26:02;7.90;;;5.77;;
297;SDS011;133;49.626;9.680;2022-08-21T09:28:33;6.60;;;5.70;;
297;SDS011;133;49.626;9.680;2022-08-21T09:31:00;6.63;;;5.73;;
297;SDS011;133;49.626;9.680;2022-08-21T09:33:34;5.73;;;5.43;;
297;SDS011;133;49.626;9.680;2022-08-21T09:36:00;6.40;;;4.80;;
297;SDS011;133;49.626;9.680;2022-08-21T09:38:31;9.40;;;5.20;;
297;SDS011;133;49.626;9.680;2022-08-21T09:41:01;11.83;;;5.43;;
297;SDS011;133;49.626;9.680;2022-08-21T09:43:27;5.27;;;4.93;;
297;SDS011;133;49.626;9.680;2022-08-21T09:46:11;7.63;;;5.63;;
297;SDS011;133;49.626;9.680;2022-08-21T09:48:47;6.07;;;5.43;;
297;SDS011;133;49.626;9.680;2022-08-21T09:51:16;6.37;;;5.60;;
297;SDS011;133;49.626;9.680;2022-08-21T09:53:45;7.53;;;5.70;;
297;SDS011;133;49.626;9.680;2022-08-21T09:56:18;6.97;;;5.30;;
297;SDS011;133;49.626;9.680;2022-08-21T09:59:26;7.07;;;5.33;;
297;SDS011;133;49.626;9.680;2022-08-21T10:01:52;6.33;;;4.87;;
297;SDS011;133;49.626;9.680;2022-08-21T10:04:19;8.20;;;5.40;;
297;SDS011;133;49.626;9.680;2022-08-21T10:06:52;5.37;;;4.60;;
297;SDS011;133;49.626;9.680;2022-08-21T10:09:19;5.70;;;4.57;;
297;SDS011;133;49.626;9.680;2022-08-21T10:15:13;5.50;;;5.20;;
297;SDS011;133;49.626;9.680;2022-08-21T10:17:48;5.90;;;5.30;;
297;SDS011;133;49.626;9.680;2022-08-21T10:20:31;5.30;;;4.90;;
297;SDS011;133;49.626;9.680;2022-08-21T10:23:08;8.80;;;5.27;;
297;SDS011;133;49.626;9.680;2022-08-21T10:25:42;7.23;;;4.60;;
297;SDS011;133;49.626;9.680;2022-08-21T10:28:24;4.87;;;4.40;;
297;SDS011;133;49.626;9.680;2022-08-21T10:31:14;7.07;;;4.57;;
297;SDS011;133;49.626;9.680;2022-08-21T10:33:54;5.53;;;5.00;;
297;SDS011;133;49.626;9.680;2022-08-21T10:36:32;5.40;;;4.97;;
297;SDS011;133;49.626;9.680;2022-08-21T10:39:18;5.47;;;5.10;;
297;SDS011;133;49.626;9.680;2022-08-21T10:45:15;4.10;;;3.80;;
297;SDS011;133;49.626;9.680;2022-08-21T10:47:57;4.37;;;4.10;;
297;SDS011;133;49.626;9.680;2022-08-21T10:50:33;6.90;;;4.70;;
297;SDS011;133;49.626;9.680;2022-08-21T10:55:52;5.40;;;4.87;;
297;SDS011;133;49.626;9.680;2022-08-21T10:58:31;5.47;;;4.20;;
297;SDS011;133;49.626;9.680;2022-08-21T11:01:10;6.77;;;5.00;;
297;SDS011;133;49.626;9.680;2022-08-21T11:04:11;4.90;;;4.17;;
297;SDS011;133;49.626;9.680;2022-08-21T11:06:43;7.90;;;3.40;;
297;SDS011;133;49.626;9.680;2022-08-21T11:09:14;4.40;;;3.97;;
297;SDS011;133;49.626;9.680;2022-08-21T11:17:21;6.97;;;3.80;;
297;SDS011;133;49.626;9.680;2022-08-21T11:20:08;4.47;;;3.80;;
297;SDS011;133;49.626;9.680;2022-08-21T11:22:56;4.43;;;3.90;;
297;SDS011;133;49.626;9.680;2022-08-21T11:25:35;3.40;;;3.20;;
297;SDS011;133;49.626;9.680;2022-08-21T11:28:20;4.17;;;3.93;;
297;SDS011;133;49.626;9.680;2022-08-21T11:31:01;3.90;;;3.73;;
297;SDS011;133;49.626;9.680;2022-08-21T11:39:35;4.30;;;3.67;;
297;SDS011;133;49.626;9.680;2022-08-21T11:48:10;4.40;;;4.17;;
297;SDS011;133;49.626;9.680;2022-08-21T11:50:58;3.80;;;3.60;;
297;SDS011;133;49.626;9.680;2022-08-21T11:53:34;3.97;;;3.77;;
297;SDS011;133;49.626;9.680;2022-08-21T11:56:15;3.80;;;3.53;;
297;SDS011;133;49.626;9.680;2022-08-21T11:58:50;3.90;;;3.70;;
297;SDS011;133;49.626;9.680;2022-08-21T12:01:27;4.63;;;4.37;;
297;SDS011;133;49.626;9.680;2022-08-21T12:06:33;4.73;;;3.50;;
297;SDS011;133;49.626;9.680;2022-08-21T12:09:05;4.03;;;3.83;;
297;SDS011;133;49.626;9.680;2022-08-21T12:11:45;5.03;;;3.60;;
297;SDS011;133;49.626;9.680;2022-08-21T12:14:14;5.93;;;3.53;;
297;SDS011;133;49.626;9.680;2022-08-21T12:16:42;4.43;;;3.90;;
297;SDS011;133;49.626;9.680;2022-08-21T12:19:13;3.57;;;3.37;;
297;SDS011;133;49.626;9.680;2022-08-21T12:21:52;3.90;;;3.70;;
297;SDS011;133;49.626;9.680;2022-08-21T12:24:49;4.77;;;4.30;;
297;SDS011;133;49.626;9.680;2022-08-21T12:29:56;4.50;;;3.90;;
297;SDS011;133;49.626;9.680;2022-08-21T12:32:42;4.87;;;4.10;;
297;SDS011;133;49.626;9.680;2022-08-21T12:35:20;5.70;;;3.70;;
297;SDS011;133;49.626;9.680;2022-08-21T12:37:52;4.97;;;3.93;;
297;SDS011;133;49.626;9.680;2022-08-21T12:40:37;5.37;;;4.07;;
297;SDS011;133;49.626;9.680;2022-08-21T12:43:11;7.27;;;3.80;;
297;SDS011;133;49.626;9.680;2022-08-21T12:45:47;3.87;;;3.50;;
297;SDS011;133;49.626;9.680;2022-08-21T12:48:25;6.57;;;4.10;;
297;SDS011;133;49.626;9.680;2022-08-21T12:51:12;3.90;;;3.70;;
297;SDS011;133;49.626;9.680;2022-08-21T12:54:21;5.87;;;3.70;;
297;SDS011;133;49.626;9.680;2022-08-21T12:57:03;4.87;;;4.23;;
297;SDS011;133;49.626;9.680;2022-08-21T12:59:30;4.83;;;4.10;;
297;SDS011;133;49.626;9.680;2022-08-21T13:01:58;3.87;;;3.67;;
297;SDS011;133;49.626;9.680;2022-08-21T13:04:34;4.77;;;4.47;;
297;SDS011;133;49.626;9.680;2022-08-21T13:07:07;6.57;;;4.83;;
297;SDS011;133;49.626;9.680;2022-08-21T13:09:52;4.23;;;3.97;;
297;SDS011;133;49.626;9.680;2022-08-21T13:12:31;4.53;;;4.20;;
297;SDS011;133;49.626;9.680;2022-08-21T13:15:00;6.53;;;4.30;;
297;SDS011;133;49.626;9.680;2022-08-21T13:17:31;4.47;;;4.17;;
297;SDS011;133;49.626;9.680;2022-08-21T13:20:05;4.67;;;4.17;;
297;SDS011;133;49.626;9.680;2022-08-21T13:22:46;4.13;;;3.90;;
297;SDS011;133;49.626;9.680;2022-08-21T13:29:14;4.00;;;3.80;;
297;SDS011;133;49.626;9.680;2022-08-21T13:31:46;4.37;;;4.07;;
297;SDS011;133;49.626;9.680;2022-08-21T13:34:14;4.50;;;4.30;;
297;SDS011;133;49.626;9.680;2022-08-21T13:36:43;4.93;;;4.63;;
297;SDS011;133;49.626;9.680;2022-08-21T13:39:13;5.03;;;4.53;;
297;SDS011;133;49.626;9.680;2022-08-21T13:41:44;5.77;;;4.43;;
297;SDS011;133;49.626;9.680;2022-08-21T13:44:21;7.30;;;4.53;;
297;SDS011;133;49.626;9.680;2022-08-21T13:46:51;6.60;;;5.33;;
297;SDS011;133;49.626;9.680;2022-08-21T13:49:19;4.90;;;4.23;;
297;SDS011;133;49.626;9.680;2022-08-21T13:51:51;5.60;;;5.00;;
297;SDS011;133;49.626;9.680;2022-08-21T13:56:48;4.63;;;4.40;;
297;SDS011;133;49.626;9.680;2022-08-21T13:59:26;5.20;;;4.50;;
297;SDS011;133;49.626;9.680;2022-08-21T14:02:37;5.07;;;4.77;;
297;SDS011;133;49.626;9.680;2022-08-21T14:05:19;4.73;;;4.43;;
297;SDS011;133;49.626;9.680;2022-08-21T14:08:15;4.97;;;4.70;;
297;SDS011;133;49.626;9.680;2022-08-21T14:10:54;7.40;;;5.10;;
297;SDS011;133;49.626;9.680;2022-08-21T14:16:14;6.80;;;4.67;;
297;SDS011;133;49.626;9.680;2022-08-21T14:18:53;5.57;;;4.83;;
297;SDS011;133;49.626;9.680;2022-08-21T14:21:29;4.70;;;4.40;;
297;SDS011;133;49.626;9.680;2022-08-21T14:24:08;5.30;;;4.07;;
297;SDS011;133;49.626;9.680;2022-08-21T14:26:48;6.10;;;4.43;;
297;SDS011;133;49.626;9.680;2022-08-21T14:29:17;4.77;;;4.47;;
297;SDS011;133;49.626;9.680;2022-08-21T14:31:55;5.97;;;5.60;;
297;SDS011;133;49.626;9.680;2022-08-21T14:34:27;4.37;;;4.07;;
297;SDS011;133;49.626;9.680;2022-08-21T14:36:54;4.60;;;4.33;;
297;SDS011;133;49.626;9.680;2022-08-21T14:39:20;5.20;;;4.73;;
297;SDS011;133;49.626;9.680;2022-08-21T14:41:46;5.27;;;4.37;;
297;SDS011;133;49.626;9.680;2022-08-21T14:44:14;5.43;;;4.80;;
297;SDS011;133;49.626;9.680;2022-08-21T14:46:41;9.30;;;4.90;;
297;SDS011;133;49.626;9.680;2022-08-21T14:49:06;7.03;;;4.50;;
297;SDS011;133;49.626;9.680;2022-08-21T14:51:32;5.37;;;4.43;;
297;SDS011;133;49.626;9.680;2022-08-21T14:53:58;4.57;;;4.10;;
297;SDS011;133;49.626;9.680;2022-08-21T14:56:24;4.80;;;4.03;;
297;SDS011;133;49.626;9.680;2022-08-21T14:58:50;6.30;;;4.87;;
297;SDS011;133;49.626;9.680;2022-08-21T15:01:18;5.57;;;4.30;;
297;SDS011;133;49.626;9.680;2022-08-21T15:03:46;4.30;;;4.00;;
297;SDS011;133;49.626;9.680;2022-08-21T15:06:13;5.03;;;4.73;;
297;SDS011;133;49.626;9.680;2022-08-21T15:08:41;6.93;;;4.43;;
297;SDS011;133;49.626;9.680;2022-08-21T15:11:07;4.77;;;4.47;;
297;SDS011;133;49.626;9.680;2022-08-21T15:13:36;6.40;;;4.77;;
297;SDS011;133;49.626;9.680;2022-08-21T15:16:02;4.07;;;3.87;;
297;SDS011;133;49.626;9.680;2022-08-21T15:18:28;4.70;;;4.43;;
297;SDS011;133;49.626;9.680;2022-08-21T15:20:55;5.37;;;4.40;;
297;SDS011;133;49.626;9.680;2022-08-21T15:23:21;6.10;;;4.20;;
297;SDS011;133;49.626;9.680;2022-08-21T15:25:47;4.67;;;4.40;;
297;SDS011;133;49.626;9.680;2022-08-21T15:28:14;7.33;;;4.60;;
297;SDS011;133;49.626;9.680;2022-08-21T15:30:42;7.67;;;4.80;;
297;SDS011;133;49.626;9.680;2022-08-21T15:33:09;5.33;;;4.73;;
297;SDS011;133;49.626;9.680;2022-08-21T15:35:35;5.20;;;4.40;;
297;SDS011;133;49.626;9.680;2022-08-21T15:38:01;5.67;;;4.73;;
297;SDS011;133;49.626;9.680;2022-08-21T15:40:27;4.93;;;4.67;;
297;SDS011;133;49.626;9.680;2022-08-21T15:42:55;7.00;;;4.93;;
297;SDS011;133;49.626;9.680;2022-08-21T15:45:23;4.80;;;4.50;;
297;SDS011;133;49.626;9.680;2022-08-21T15:47:49;5.00;;;4.20;;
297;SDS011;133;49.626;9.680;2022-08-21T15:50:16;4.87;;;4.63;;
297;SDS011;133;49.626;9.680;2022-08-21T15:52:41;7.03;;;4.87;;
297;SDS011;133;49.626;9.680;2022-08-21T15:55:07;6.00;;;5.10;;
297;SDS011;133;49.626;9.680;2022-08-21T15:57:34;4.60;;;4.30;;
297;SDS011;133;49.626;9.680;2022-08-21T16:00:13;4.43;;;4.13;;
297;SDS011;133;49.626;9.680;2022-08-21T16:02:45;5.97;;;4.73;;
297;SDS011;133;49.626;9.680;2022-08-21T16:05:12;5.87;;;4.67;;
297;SDS011;133;49.626;9.680;2022-08-21T16:07:41;5.83;;;4.57;;
297;SDS011;133;49.626;9.680;2022-08-21T16:10:07;5.13;;;4.60;;
297;SDS011;133;49.626;9.680;2022-08-21T16:12:36;5.07;;;4.77;;
297;SDS011;133;49.626;9.680;2022-08-21T16:15:06;5.60;;;4.63;;
297;SDS011;133;49.626;9.680;2022-08-21T16:17:35;7.03;;;4.47;;
297;SDS011;133;49.626;9.680;2022-08-21T16:20:04;5.20;;;4.47;;
297;SDS011;133;49.626;9.680;2022-08-21T16:22:33;6.47;;;4.50;;
297;SDS011;133;49.626;9.680;2022-08-21T16:24:59;5.50;;;4.80;;
297;SDS011;133;49.626;9.680;2022-08-21T16:27:24;4.70;;;4.30;;
297;SDS011;133;49.626;9.680;2022-08-21T16:29:50;4.83;;;4.10;;
297;SDS011;133;49.626;9.680;2022-08-21T16:32:16;8.70;;;4.60;;
297;SDS011;133;49.626;9.680;2022-08-21T16:34:44;4.73;;;4.50;;
297;SDS011;133;49.626;9.680;2022-08-21T16:37:11;5.90;;;4.73;;
297;SDS011;133;49.626;9.680;2022-08-21T16:39:41;6.17;;;4.90;;
297;SDS011;133;49.626;9.680;2022-08-21T16:42:08;5.80;;;5.03;;
297;SDS011;133;49.626;9.680;2022-08-21T16:44:37;5.90;;;4.53;;
297;SDS011;133;49.626;9.680;2022-08-21T16:47:03;4.70;;;4.43;;
297;SDS011;133;49.626;9.680;2022-08-21T16:49:29;5.33;;;4.47;;